createdAt,value
2022-10-17T00:01:06.139Z,18.33
2022-10-17T00:03:37.429Z,18.34
2022-10-17T00:06:09.716Z,18.32
2022-10-17T00:08:37.595Z,18.30
2022-10-17T00:11:10.152Z,18.31
2022-10-17T00:13:37.137Z,18.29
2022-10-17T00:16:04.443Z,18.28
2022-10-17T00:18:31.490Z,18.25
2022-10-17T00:20:58.528Z,18.24
2022-10-17T00:23:27.669Z,18.22
2022-10-17T00:26:05.905Z,18.22
2022-10-17T00:28:33.061Z,18.20
2022-10-17T00:31:02.723Z,18.21
2022-10-17T00:33:31.103Z,18.21
2022-10-17T00:36:14.087Z,18.21
2022-10-17T00:38:42.816Z,18.21
2022-10-17T00:41:12.230Z,18.20
2022-10-17T00:44:28.314Z,18.22
2022-10-17T00:47:05.054Z,18.22
2022-10-17T00:49:35.108Z,18.20
2022-10-17T00:52:09.940Z,18.23
2022-10-17T00:54:41.407Z,18.24
2022-10-17T00:57:08.674Z,18.23
2022-10-17T00:59:38.596Z,18.24
2022-10-17T01:02:15.843Z,18.23
2022-10-17T01:04:46.571Z,18.21
2022-10-17T01:07:13.660Z,18.19
2022-10-17T01:09:41.712Z,18.18
2022-10-17T01:12:32.796Z,18.18
2022-10-17T01:15:20.917Z,18.16
2022-10-17T01:18:12.213Z,18.15
2022-10-17T01:21:10.433Z,18.13
2022-10-17T01:23:56.154Z,18.12
2022-10-17T01:26:55.893Z,18.13
2022-10-17T01:29:32.070Z,18.12
2022-10-17T01:32:19.314Z,18.10
2022-10-17T01:35:01.065Z,18.10
2022-10-17T01:37:38.198Z,18.07
2022-10-17T01:40:16.006Z,18.09
2022-10-17T01:42:51.961Z,18.05
2022-10-17T01:45:33.698Z,18.04
2022-10-17T01:48:10.149Z,18.01
2022-10-17T01:50:44.483Z,18.02
2022-10-17T01:53:20.537Z,17.99
2022-10-17T01:55:50.155Z,17.98
2022-10-17T01:58:28.455Z,17.94
2022-10-17T02:00:59.565Z,17.93
2022-10-17T02:03:29.915Z,17.92
2022-10-17T02:05:56.975Z,17.92
2022-10-17T02:08:29.034Z,17.91
2022-10-17T02:11:06.286Z,17.90
2022-10-17T02:14:05.380Z,17.89
2022-10-17T02:17:03.337Z,17.88
2022-10-17T02:20:02.898Z,17.86
2022-10-17T02:22:42.441Z,17.84
2022-10-17T02:25:18.862Z,17.81
2022-10-17T02:27:51.186Z,17.78
2022-10-17T02:30:40.861Z,17.81
2022-10-17T02:33:49.148Z,17.79
2022-10-17T02:36:22.225Z,17.79
2022-10-17T02:38:51.982Z,17.80
2022-10-17T02:41:20.452Z,17.81
2022-10-17T02:43:49.890Z,17.82
2022-10-17T02:46:21.256Z,17.84
2022-10-17T02:48:53.426Z,17.85
2022-10-17T02:51:45.098Z,17.88
2022-10-17T02:54:37.405Z,17.92
2022-10-17T02:57:27.241Z,17.91
2022-10-17T02:59:58.344Z,17.93
2022-10-17T03:02:25.496Z,17.94
2022-10-17T03:04:52.816Z,17.92
2022-10-17T03:07:19.879Z,17.94
2022-10-17T03:09:46.945Z,17.94
2022-10-17T03:12:14.015Z,17.94
2022-10-17T03:14:41.079Z,17.93
2022-10-17T03:17:08.359Z,17.92
2022-10-17T03:19:35.950Z,17.92
2022-10-17T03:22:03.092Z,17.90
2022-10-17T03:24:31.180Z,17.87
2022-10-17T03:26:58.625Z,17.84
2022-10-17T03:29:25.614Z,17.81
2022-10-17T03:31:53.493Z,17.80
2022-10-17T03:34:20.638Z,17.78
2022-10-17T03:36:48.709Z,17.78
2022-10-17T03:39:15.904Z,17.77
2022-10-17T03:41:43.299Z,17.77
2022-10-17T03:44:10.312Z,17.76
2022-10-17T03:46:37.417Z,17.75
2022-10-17T03:49:04.569Z,17.71
2022-10-17T03:51:34.515Z,17.70
2022-10-17T03:54:06.116Z,17.66
2022-10-17T03:56:33.573Z,17.63
2022-10-17T03:59:07.080Z,17.60
2022-10-17T04:01:36.872Z,17.59
2022-10-17T04:04:04.225Z,17.57
2022-10-17T04:06:34.426Z,17.56
2022-10-17T04:09:01.756Z,17.55
2022-10-17T04:11:40.415Z,17.53
2022-10-17T04:14:08.354Z,17.53
2022-10-17T04:16:39.076Z,17.51
2022-10-17T04:19:13.994Z,17.51
2022-10-17T04:21:45.016Z,17.49
2022-10-17T04:24:13.481Z,17.48
2022-10-17T04:27:00.669Z,17.46
2022-10-17T04:29:30.465Z,17.44
2022-10-17T04:32:05.922Z,17.41
2022-10-17T04:34:43.301Z,17.40
2022-10-17T04:37:10.809Z,17.39
2022-10-17T04:39:38.171Z,17.36
2022-10-17T04:42:05.465Z,17.35
2022-10-17T04:44:33.844Z,17.33
2022-10-17T04:47:01.625Z,17.31
2022-10-17T04:49:28.825Z,17.28
2022-10-17T04:52:00.957Z,17.26
2022-10-17T04:54:44.811Z,17.26
2022-10-17T04:57:13.730Z,17.24
2022-10-17T04:59:43.035Z,17.25
2022-10-17T05:02:28.246Z,17.24
2022-10-17T05:04:55.982Z,17.23
2022-10-17T05:07:22.908Z,17.23
2022-10-17T05:10:11.331Z,17.24
2022-10-17T05:12:40.733Z,17.23
2022-10-17T05:15:09.098Z,17.23
2022-10-17T05:17:36.090Z,17.24
2022-10-17T05:20:03.046Z,17.30
2022-10-17T05:22:32.024Z,17.43
2022-10-17T05:25:00.970Z,17.66
2022-10-17T05:27:28.749Z,17.95
2022-10-17T05:29:55.796Z,18.21
2022-10-17T05:32:30.829Z,18.40
2022-10-17T05:34:58.610Z,18.63
2022-10-17T05:37:26.263Z,19.00
2022-10-17T05:39:56.082Z,19.42
2022-10-17T05:42:24.564Z,19.84
2022-10-17T05:44:51.758Z,20.33
2022-10-17T05:47:19.766Z,20.85
2022-10-17T05:49:51.509Z,21.34
2022-10-17T05:52:25.428Z,21.80
2022-10-17T05:55:00.564Z,22.27
2022-10-17T05:57:27.896Z,22.64
2022-10-17T05:59:56.245Z,22.96
2022-10-17T06:02:23.567Z,23.37
2022-10-17T06:04:50.863Z,23.62
2022-10-17T06:07:20.814Z,24.04
2022-10-17T06:09:48.817Z,24.31
2022-10-17T06:12:15.815Z,24.56
2022-10-17T06:14:43.782Z,24.83
2022-10-17T06:17:16.992Z,24.79
2022-10-17T06:19:45.232Z,24.43
2022-10-17T06:22:15.110Z,23.79
2022-10-17T06:24:42.770Z,23.62
2022-10-17T06:27:12.095Z,24.14
2022-10-17T06:29:41.013Z,24.67
2022-10-17T06:32:11.091Z,25.17
2022-10-17T06:34:42.410Z,25.79
2022-10-17T06:37:10.823Z,26.28
2022-10-17T06:39:39.918Z,26.36
2022-10-17T06:42:16.706Z,26.58
2022-10-17T06:45:04.142Z,26.88
2022-10-17T06:47:37.406Z,26.95
2022-10-17T06:50:17.486Z,26.75
2022-10-17T06:52:51.981Z,26.60
2022-10-17T06:55:54.055Z,26.80
2022-10-17T06:58:41.759Z,26.79
2022-10-17T07:01:22.728Z,26.37
2022-10-17T07:03:54.277Z,26.20
2022-10-17T07:06:24.312Z,26.22
2022-10-17T07:08:52.566Z,25.91
2022-10-17T07:11:21.591Z,25.65
2022-10-17T07:13:51.145Z,25.61
2022-10-17T07:16:18.223Z,25.48
2022-10-17T07:18:51.241Z,25.31
2022-10-17T07:21:18.923Z,25.10
2022-10-17T07:23:46.391Z,24.48
2022-10-17T07:26:16.550Z,23.84
2022-10-17T07:28:45.112Z,23.41
2022-10-17T07:31:33.536Z,23.20
2022-10-17T07:34:00.965Z,22.99
2022-10-17T07:36:28.596Z,22.87
2022-10-17T07:38:56.915Z,22.92
2022-10-17T07:41:25.234Z,22.82
2022-10-17T07:43:52.306Z,22.75
2022-10-17T07:46:22.912Z,22.71
2022-10-17T07:48:50.172Z,22.69
2022-10-17T07:51:20.328Z,22.71
2022-10-17T07:53:48.847Z,22.59
2022-10-17T07:56:16.553Z,22.56
2022-10-17T07:58:43.499Z,22.53
2022-10-17T08:01:16.230Z,22.43
2022-10-17T08:03:48.921Z,22.35
2022-10-17T08:06:16.107Z,22.40
2022-10-17T08:08:44.460Z,22.62
2022-10-17T08:11:13.674Z,22.49
2022-10-17T08:13:41.751Z,22.46
2022-10-17T08:16:11.815Z,22.83
2022-10-17T08:18:44.158Z,23.02
2022-10-17T08:21:13.408Z,23.03
2022-10-17T08:23:42.338Z,23.27
2022-10-17T08:26:13.497Z,23.32
2022-10-17T08:28:40.971Z,23.42
2022-10-17T08:31:13.902Z,23.52
2022-10-17T08:33:41.423Z,23.07
2022-10-17T08:36:09.409Z,22.80
2022-10-17T08:38:43.013Z,22.79
2022-10-17T08:41:45.772Z,23.17
2022-10-17T08:44:26.580Z,23.48
2022-10-17T08:46:59.109Z,23.68
2022-10-17T08:49:51.436Z,23.51
2022-10-17T08:52:32.746Z,23.63
2022-10-17T08:55:00.027Z,23.81
2022-10-17T08:57:29.068Z,23.97
2022-10-17T08:59:57.053Z,24.10
2022-10-17T09:02:45.009Z,24.21
2022-10-17T09:05:23.973Z,24.29
2022-10-17T09:08:22.766Z,24.19
2022-10-17T09:11:14.393Z,24.28
2022-10-17T09:13:51.079Z,24.07
2022-10-17T09:16:40.201Z,24.21
2022-10-17T09:19:21.743Z,23.80
2022-10-17T09:21:54.354Z,23.38
2022-10-17T09:24:39.865Z,23.24
2022-10-17T09:27:23.537Z,23.45
2022-10-17T09:30:02.298Z,23.64
2022-10-17T09:32:29.556Z,23.54
2022-10-17T09:34:56.833Z,23.24
2022-10-17T09:37:32.973Z,23.14
2022-10-17T09:40:00.042Z,23.21
2022-10-17T09:42:28.481Z,23.31
2022-10-17T09:45:16.544Z,23.40
2022-10-17T09:48:06.795Z,23.32
2022-10-17T09:50:34.457Z,23.41
2022-10-17T09:53:10.210Z,23.48
2022-10-17T09:55:48.452Z,23.79
2022-10-17T09:58:15.758Z,24.03
2022-10-17T10:00:47.716Z,23.82
2022-10-17T10:03:26.521Z,23.82
2022-10-17T10:06:13.987Z,23.78
2022-10-17T10:08:51.457Z,23.56
2022-10-17T10:11:22.689Z,23.71
2022-10-17T10:13:50.845Z,23.65
2022-10-17T10:16:42.547Z,23.69
2022-10-17T10:19:32.345Z,23.78
2022-10-17T10:22:04.700Z,23.62
2022-10-17T10:24:32.374Z,23.50
2022-10-17T10:27:03.020Z,23.59
2022-10-17T10:29:40.117Z,23.70
2022-10-17T10:32:19.243Z,23.73
2022-10-17T10:34:50.998Z,23.67
2022-10-17T10:37:27.403Z,23.71
2022-10-17T10:40:04.374Z,23.73
2022-10-17T10:42:37.828Z,23.74
2022-10-17T10:45:47.510Z,23.79
2022-10-17T10:48:24.636Z,23.71
2022-10-17T10:50:57.630Z,23.70
2022-10-17T10:53:34.113Z,23.82
2022-10-17T10:56:13.974Z,23.80
2022-10-17T10:59:02.781Z,23.79
2022-10-17T11:01:51.654Z,23.64
2022-10-17T11:04:41.000Z,23.52
2022-10-17T11:07:15.459Z,23.47
2022-10-17T11:09:49.475Z,23.53
2022-10-17T11:12:31.734Z,23.59
2022-10-17T11:14:58.803Z,23.56
2022-10-17T11:17:30.661Z,23.42
2022-10-17T11:20:12.601Z,23.13
2022-10-17T11:22:44.560Z,22.96
2022-10-17T11:25:36.782Z,22.78
2022-10-17T11:28:12.300Z,22.66
2022-10-17T11:31:04.484Z,23.02
2022-10-17T11:33:52.261Z,23.25
2022-10-17T11:36:26.255Z,23.36
2022-10-17T11:39:05.574Z,23.27
2022-10-17T11:41:36.586Z,23.22
2022-10-17T11:44:18.797Z,23.07
2022-10-17T11:46:49.993Z,23.24
2022-10-17T11:49:24.016Z,23.32
2022-10-17T11:52:02.421Z,23.04
2022-10-17T11:54:41.907Z,22.93
2022-10-17T11:57:30.494Z,22.91
2022-10-17T12:00:01.057Z,22.88
2022-10-17T12:03:00.565Z,22.88
2022-10-17T12:05:42.988Z,22.84
2022-10-17T12:08:34.814Z,22.87
2022-10-17T12:11:11.341Z,23.10
2022-10-17T12:13:38.474Z,23.30
2022-10-17T12:16:20.783Z,23.38
2022-10-17T12:19:11.570Z,23.10
2022-10-17T12:21:56.142Z,23.09
2022-10-17T12:24:40.861Z,23.10
2022-10-17T12:27:29.208Z,22.99
2022-10-17T12:30:14.802Z,22.93
2022-10-17T12:33:11.531Z,23.00
2022-10-17T12:35:39.623Z,23.15
2022-10-17T12:38:18.849Z,23.22
2022-10-17T12:40:49.039Z,23.24
2022-10-17T12:43:16.221Z,23.13
2022-10-17T12:45:53.592Z,23.08
2022-10-17T12:48:39.013Z,23.05
2022-10-17T12:51:35.417Z,22.98
2022-10-17T12:54:16.511Z,23.07
2022-10-17T12:56:49.447Z,22.99
2022-10-17T12:59:16.244Z,23.04
2022-10-17T13:01:48.444Z,22.96
2022-10-17T13:04:15.963Z,23.08
2022-10-17T13:06:55.858Z,22.96
2022-10-17T13:09:32.696Z,23.04
2022-10-17T13:12:03.133Z,23.09
2022-10-17T13:14:33.114Z,23.08
2022-10-17T13:17:07.538Z,22.96
2022-10-17T13:19:43.358Z,22.93
2022-10-17T13:22:15.514Z,22.99
2022-10-17T13:24:42.612Z,22.98
2022-10-17T13:27:33.973Z,22.89
2022-10-17T13:30:21.239Z,22.80
2022-10-17T13:32:48.377Z,22.79
2022-10-17T13:35:31.738Z,22.85
2022-10-17T13:38:09.403Z,22.90
2022-10-17T13:40:49.941Z,22.82
2022-10-17T13:43:21.091Z,22.71
2022-10-17T13:46:02.298Z,22.76
2022-10-17T13:48:38.466Z,22.70
2022-10-17T13:51:10.299Z,22.67
2022-10-17T13:53:44.039Z,22.67
2022-10-17T13:56:34.716Z,22.69
2022-10-17T13:59:19.041Z,22.84
2022-10-17T14:01:49.883Z,22.83
2022-10-17T14:04:20.095Z,22.75
2022-10-17T14:06:49.798Z,22.76
2022-10-17T14:09:27.015Z,22.68
2022-10-17T14:12:06.848Z,22.63
2022-10-17T14:14:51.689Z,22.64
2022-10-17T14:17:28.374Z,22.60
2022-10-17T14:20:16.479Z,22.59
2022-10-17T14:22:50.636Z,22.53
2022-10-17T14:25:29.725Z,22.47
2022-10-17T14:28:07.979Z,22.50
2022-10-17T14:30:57.463Z,22.49
2022-10-17T14:33:27.805Z,22.46
2022-10-17T14:35:57.756Z,22.43
2022-10-17T14:38:25.957Z,22.38
2022-10-17T14:41:15.298Z,22.34
2022-10-17T14:43:45.713Z,22.32
2022-10-17T14:46:16.136Z,22.25
2022-10-17T14:48:43.949Z,22.12
2022-10-17T14:51:12.609Z,22.11
2022-10-17T14:53:40.246Z,22.02
2022-10-17T14:56:28.323Z,22.03
2022-10-17T14:58:55.285Z,22.06
2022-10-17T15:01:22.325Z,22.06
2022-10-17T15:03:49.252Z,21.96
2022-10-17T15:06:29.966Z,21.87
2022-10-17T15:08:57.889Z,21.88
2022-10-17T15:11:25.000Z,21.89
2022-10-17T15:13:52.322Z,21.91
2022-10-17T15:16:24.781Z,21.95
2022-10-17T15:18:52.841Z,21.92
2022-10-17T15:21:39.218Z,21.86
2022-10-17T15:24:07.734Z,21.81
2022-10-17T15:26:35.241Z,21.81
2022-10-17T15:29:02.305Z,21.83
2022-10-17T15:31:31.655Z,21.86
2022-10-17T15:33:58.713Z,21.84
2022-10-17T15:36:28.188Z,21.86
2022-10-17T15:38:58.253Z,21.85
2022-10-17T15:41:27.404Z,21.78
2022-10-17T15:43:54.717Z,21.78
2022-10-17T15:46:25.445Z,21.75
2022-10-17T15:48:54.366Z,21.65
2022-10-17T15:51:23.474Z,21.58
2022-10-17T15:53:50.469Z,21.54
2022-10-17T15:56:35.899Z,21.50
2022-10-17T15:59:06.748Z,21.46
2022-10-17T16:01:34.545Z,21.38
2022-10-17T16:04:02.094Z,21.34
2022-10-17T16:06:29.516Z,21.32
2022-10-17T16:08:56.549Z,21.28
2022-10-17T16:11:31.982Z,21.27
2022-10-17T16:14:02.503Z,21.25
2022-10-17T16:16:30.204Z,21.20
2022-10-17T16:18:57.253Z,21.20
2022-10-17T16:23:57.845Z,21.18
2022-10-17T16:26:25.427Z,21.16
2022-10-17T16:28:52.477Z,21.11
2022-10-17T16:31:22.961Z,21.10
2022-10-17T16:33:55.066Z,21.11
2022-10-17T16:36:22.587Z,21.10
2022-10-17T16:38:51.591Z,21.08
2022-10-17T16:41:38.964Z,21.05
2022-10-17T16:44:08.388Z,21.02
2022-10-17T16:46:37.808Z,21.03
2022-10-17T16:49:05.740Z,20.98
2022-10-17T16:51:35.928Z,20.89
2022-10-17T16:54:05.612Z,20.85
2022-10-17T16:56:33.082Z,20.81
2022-10-17T16:59:01.118Z,20.81
2022-10-17T17:01:31.488Z,20.80
2022-10-17T17:03:58.586Z,20.74
2022-10-17T17:06:28.549Z,20.69
2022-10-17T17:08:56.668Z,20.61
2022-10-17T17:11:26.557Z,20.59
2022-10-17T17:13:56.623Z,20.55
2022-10-17T17:16:25.421Z,20.51
2022-10-17T17:19:01.687Z,20.45
2022-10-17T17:21:29.068Z,20.44
2022-10-17T17:23:58.729Z,20.42
2022-10-17T17:26:27.625Z,20.38
2022-10-17T17:28:57.003Z,20.35
2022-10-17T17:31:26.838Z,20.37
2022-10-17T17:36:31.951Z,20.44
2022-10-17T17:39:00.920Z,20.46
2022-10-17T17:41:28.748Z,20.46
2022-10-17T17:43:56.197Z,20.48
2022-10-17T17:46:26.088Z,20.45
2022-10-17T17:48:54.396Z,20.39
2022-10-17T17:51:28.300Z,20.35
2022-10-17T17:53:56.951Z,20.31
2022-10-17T17:56:26.942Z,20.25
2022-10-17T17:58:59.510Z,20.21
2022-10-17T18:01:29.571Z,20.18
2022-10-17T18:03:59.077Z,20.19
2022-10-17T18:06:27.246Z,20.21
2022-10-17T18:08:57.861Z,20.23
2022-10-17T18:11:26.394Z,20.24
2022-10-17T18:13:55.540Z,20.24
2022-10-17T18:16:22.713Z,20.25
2022-10-17T18:18:49.762Z,20.24
2022-10-17T18:21:17.404Z,20.21
2022-10-17T18:23:46.143Z,20.19
2022-10-17T18:26:14.735Z,20.18
2022-10-17T18:28:43.351Z,20.15
2022-10-17T18:31:15.873Z,20.15
2022-10-17T18:33:44.761Z,20.13
2022-10-17T18:36:14.364Z,20.13
2022-10-17T18:38:42.303Z,20.13
2022-10-17T18:41:12.065Z,20.14
2022-10-17T18:43:41.280Z,20.15
2022-10-17T18:46:14.002Z,20.15
2022-10-17T18:48:44.661Z,20.13
2022-10-17T18:51:13.366Z,20.13
2022-10-17T18:53:45.366Z,20.12
2022-10-17T18:56:13.621Z,20.12
2022-10-17T18:58:41.034Z,20.12
2022-10-17T19:01:15.527Z,20.11
2022-10-17T19:03:47.362Z,20.10
2022-10-17T19:06:18.196Z,20.09
2022-10-17T19:08:46.119Z,20.08
2022-10-17T19:11:24.782Z,20.07
2022-10-17T19:13:52.724Z,20.05
2022-10-17T19:16:29.739Z,20.04
2022-10-17T19:19:01.451Z,20.02
2022-10-17T19:21:28.466Z,20.01
2022-10-17T19:24:01.031Z,19.99
2022-10-17T19:26:30.374Z,19.98
2022-10-17T19:28:57.586Z,19.95
2022-10-17T19:31:27.393Z,19.97
2022-10-17T19:33:55.713Z,19.94
2022-10-17T19:36:30.512Z,19.92
2022-10-17T19:39:06.548Z,19.89
2022-10-17T19:41:34.090Z,19.87
2022-10-17T19:44:01.312Z,19.84
2022-10-17T19:46:30.107Z,19.83
2022-10-17T19:48:57.915Z,19.80
2022-10-17T19:51:26.456Z,19.81
2022-10-17T19:53:55.394Z,19.79
2022-10-17T19:56:23.807Z,19.77
2022-10-17T19:58:51.677Z,19.75
2022-10-17T20:01:21.925Z,19.72
2022-10-17T20:03:49.862Z,19.69
2022-10-17T20:06:17.877Z,19.65
2022-10-17T20:08:45.197Z,19.62
2022-10-17T20:11:15.606Z,19.61
2022-10-17T20:13:43.324Z,19.60
2022-10-17T20:16:15.050Z,19.57
2022-10-17T20:18:42.461Z,19.54
2022-10-17T20:21:12.462Z,19.53
2022-10-17T20:23:40.962Z,19.49
2022-10-17T20:26:26.069Z,19.46
2022-10-17T20:29:05.111Z,19.43
2022-10-17T20:31:32.170Z,19.42
2022-10-17T20:33:59.781Z,19.41
2022-10-17T20:36:27.417Z,19.41
2022-10-17T20:38:56.542Z,19.39
2022-10-17T20:41:24.899Z,19.36
2022-10-17T20:43:53.441Z,19.36
2022-10-17T20:46:35.871Z,19.34
2022-10-17T20:49:06.214Z,19.32
2022-10-17T20:51:33.481Z,19.31
2022-10-17T20:54:00.679Z,19.28
2022-10-17T20:56:29.559Z,19.27
2022-10-17T20:58:59.230Z,19.25
2022-10-17T21:01:27.192Z,19.23
2022-10-17T21:03:54.145Z,19.23
2022-10-17T21:06:22.148Z,19.23
2022-10-17T21:08:49.833Z,19.21
2022-10-17T21:11:19.336Z,19.20
2022-10-17T21:13:48.246Z,19.19
2022-10-17T21:16:17.704Z,19.18
2022-10-17T21:18:45.102Z,19.18
2022-10-17T21:21:19.260Z,19.17
2022-10-17T21:23:48.294Z,19.16
2022-10-17T21:26:16.251Z,19.15
2022-10-17T21:28:44.832Z,19.14
2022-10-17T21:31:13.569Z,19.15
2022-10-17T21:33:42.100Z,19.12
2022-10-17T21:36:10.170Z,19.11
2022-10-17T21:38:38.310Z,19.09
2022-10-17T21:41:07.274Z,19.07
2022-10-17T21:43:35.273Z,19.06
2022-10-17T21:46:07.258Z,19.04
2022-10-17T21:48:34.770Z,19.01
2022-10-17T21:51:04.227Z,19.00
2022-10-17T21:53:31.514Z,18.98
2022-10-17T21:56:07.234Z,18.97
2022-10-17T21:58:34.237Z,18.95
2022-10-17T22:01:10.651Z,18.95
2022-10-17T22:03:44.234Z,18.94
2022-10-17T22:09:06.082Z,18.92
2022-10-17T22:11:35.249Z,18.91
2022-10-17T22:14:05.678Z,18.91
2022-10-17T22:16:33.642Z,18.87
2022-10-17T22:19:06.131Z,18.83
2022-10-17T22:21:35.840Z,18.80
2022-10-17T22:24:07.753Z,18.76
2022-10-17T22:26:36.990Z,18.76
2022-10-17T22:29:05.851Z,18.72
2022-10-17T22:31:33.689Z,18.69
2022-10-17T22:34:00.740Z,18.67
2022-10-17T22:36:28.787Z,18.66
2022-10-17T22:38:55.751Z,18.63
2022-10-17T22:41:23.022Z,18.62
2022-10-17T22:43:49.936Z,18.62
2022-10-17T22:46:17.395Z,18.60
2022-10-17T22:48:44.494Z,18.59
2022-10-17T22:51:12.292Z,18.58
2022-10-17T22:53:39.530Z,18.58
2022-10-17T22:56:11.042Z,18.59
2022-10-17T22:58:38.628Z,18.58
2022-10-17T23:01:07.287Z,18.55
2022-10-17T23:03:35.572Z,18.52
2022-10-17T23:06:03.170Z,18.49
2022-10-17T23:08:30.917Z,18.48
2022-10-17T23:10:58.002Z,18.45
2022-10-17T23:13:25.262Z,18.42
2022-10-17T23:15:53.983Z,18.41
2022-10-17T23:18:22.601Z,18.41
2022-10-17T23:20:49.974Z,18.41
2022-10-17T23:23:17.346Z,18.40
2022-10-17T23:25:44.849Z,18.40
2022-10-17T23:28:12.137Z,18.41
2022-10-17T23:30:39.856Z,18.38
2022-10-17T23:33:07.184Z,18.37
2022-10-17T23:35:35.601Z,18.38
2022-10-17T23:38:03.204Z,18.38
2022-10-17T23:40:30.213Z,18.38
2022-10-17T23:42:57.337Z,18.36
2022-10-17T23:45:24.346Z,18.34
2022-10-17T23:47:51.427Z,18.34
2022-10-17T23:50:18.627Z,18.33
2022-10-17T23:52:45.679Z,18.34
2022-10-17T23:55:12.678Z,18.32
2022-10-17T23:57:39.746Z,18.31
